Time;durP1;ratioP1;P1;durP2;ratioP2;P2;SDS_P1;SDS_P2;PMS_P1;PMS_P2;Temp;Humidity;BMP_temperature;BMP_pressure;BME280_temperature;BME280_humidity;BME280_pressure;Samples;Min_cycle;Max_cycle;Signal;HPM_P1;HPM_P2
2021/06/29 00:00:37;;;;;;;28.30;25.17;;;21.40;87.10;;;;;;5067472;28;20033;-74
2021/06/29 00:03:07;;;;;;;28.70;25.27;;;21.40;87.10;;;;;;5052948;28;20029;-74
2021/06/29 00:05:35;;;;;;;31.52;27.25;;;21.40;87.20;;;;;;5056246;28;20393;-74
2021/06/29 00:08:05;;;;;;;34.55;24.60;;;21.40;87.20;;;;;;5056738;28;20074;-74
2021/06/29 00:10:31;;;;;;;28.45;25.45;;;21.30;87.20;;;;;;5055912;28;20484;-74
2021/06/29 00:12:58;;;;;;;29.88;26.75;;;21.30;87.40;;;;;;5073760;28;20024;-74
2021/06/29 00:15:27;;;;;;;28.17;25.17;;;21.30;87.50;;;;;;5088109;28;20019;-74
2021/06/29 00:17:54;;;;;;;31.50;28.02;;;21.30;87.80;;;;;;5064110;28;20485;-74
2021/06/29 00:20:20;;;;;;;30.65;27.20;;;21.30;87.80;;;;;;5055643;28;20043;-74
2021/06/29 00:22:46;;;;;;;28.83;25.30;;;21.30;87.90;;;;;;5063372;28;20078;-74
2021/06/29 00:25:13;;;;;;;31.90;27.80;;;21.30;88.00;;;;;;5054679;28;20481;-74
2021/06/29 00:27:40;;;;;;;31.15;25.70;;;21.30;88.00;;;;;;5052437;28;20462;-74
2021/06/29 00:30:07;;;;;;;37.85;31.05;;;21.30;88.10;;;;;;5051131;28;20111;-74
2021/06/29 00:32:33;;;;;;;31.77;28.38;;;21.40;88.20;;;;;;5059273;28;20020;-74
2021/06/29 00:34:58;;;;;;;35.20;29.80;;;21.30;88.30;;;;;;5065158;28;20036;-74
2021/06/29 00:37:24;;;;;;;31.67;28.25;;;21.30;88.40;;;;;;5073868;28;20111;-74
2021/06/29 00:39:50;;;;;;;33.92;28.42;;;21.30;88.50;;;;;;5076173;28;20032;-82
2021/06/29 00:42:15;;;;;;;33.33;28.80;;;21.30;88.50;;;;;;5064940;28;20044;-81
2021/06/29 00:44:41;;;;;;;36.75;28.48;;;21.40;88.60;;;;;;5058594;28;20032;-81
2021/06/29 00:47:10;;;;;;;35.05;30.20;;;21.40;88.70;;;;;;5071514;28;20095;-80
2021/06/29 00:49:37;;;;;;;39.15;29.70;;;21.40;88.80;;;;;;5057056;28;20037;-80
2021/06/29 00:52:04;;;;;;;37.80;28.48;;;21.40;88.90;;;;;;5070644;28;20075;-80
2021/06/29 00:54:32;;;;;;;34.67;27.63;;;21.30;88.90;;;;;;5078295;28;20089;-80
2021/06/29 00:56:58;;;;;;;37.72;29.75;;;21.30;89.10;;;;;;5084534;28;20025;-80
2021/06/29 00:59:24;;;;;;;45.20;35.58;;;21.30;89.10;;;;;;5070650;28;20162;-79
2021/06/29 01:01:49;;;;;;;43.55;34.10;;;21.30;89.30;;;;;;5074593;28;20025;-80
2021/06/29 01:04:15;;;;;;;45.38;35.10;;;21.30;89.40;;;;;;5058333;28;20074;-80
2021/06/29 01:06:42;;;;;;;44.53;32.78;;;21.20;89.50;;;;;;5064587;28;20025;-80
2021/06/29 01:09:08;;;;;;;42.83;32.60;;;21.20;89.50;;;;;;5074937;28;20028;-80
2021/06/29 01:11:34;;;;;;;43.35;30.48;;;21.30;89.70;;;;;;5058236;28;20082;-80
2021/06/29 01:14:11;;;;;;;38.08;29.80;;;21.20;89.60;;;;;;5075025;28;20031;-80
2021/06/29 01:16:37;;;;;;;52.50;34.00;;;21.20;89.90;;;;;;5068127;28;20017;-80
2021/06/29 01:19:02;;;;;;;46.13;35.17;;;21.20;89.80;;;;;;5074901;28;20039;-80
2021/06/29 01:21:36;;;;;;;55.97;39.10;;;21.10;89.90;;;;;;5057651;28;20029;-81
2021/06/29 01:24:03;;;;;;;44.42;32.63;;;21.10;90.00;;;;;;5064022;28;20150;-80
2021/06/29 01:26:31;;;;;;;44.13;33.25;;;21.10;90.10;;;;;;5055630;28;20036;-80
2021/06/29 01:29:06;;;;;;;62.38;41.30;;;21.10;90.20;;;;;;5055532;28;20033;-80
2021/06/29 01:31:34;;;;;;;46.92;36.55;;;21.10;90.20;;;;;;5053070;28;20031;-81
2021/06/29 01:33:59;;;;;;;47.88;37.22;;;21.10;90.30;;;;;;5075672;28;20028;-81
2021/06/29 01:36:34;;;;;;;50.75;37.10;;;21.10;90.60;;;;;;5060653;28;20037;-81
2021/06/29 01:39:02;;;;;;;46.35;33.70;;;21.10;90.40;;;;;;5055586;28;20051;-80
2021/06/29 01:41:28;;;;;;;55.33;38.72;;;21.10;90.30;;;;;;5069489;28;20028;-81
2021/06/29 01:43:57;;;;;;;43.47;32.55;;;21.10;90.30;;;;;;5057548;28;20406;-81
2021/06/29 01:46:25;;;;;;;54.92;36.72;;;21.10;90.40;;;;;;5073135;28;20055;-81
2021/06/29 01:48:53;;;;;;;43.33;34.78;;;21.00;90.30;;;;;;5055091;28;20070;-81
2021/06/29 01:51:20;;;;;;;46.78;34.63;;;21.10;90.40;;;;;;5043346;28;20225;-80
2021/06/29 01:53:47;;;;;;;51.47;38.15;;;21.10;90.40;;;;;;5073477;28;20115;-81
2021/06/29 01:56:17;;;;;;;47.65;37.80;;;21.00;90.40;;;;;;5073280;28;20021;-81
2021/06/29 01:59:07;;;;;;;44.72;34.08;;;21.00;90.40;;;;;;5074195;28;20043;-81
2021/06/29 02:01:32;;;;;;;52.42;35.53;;;21.00;90.40;;;;;;5065098;28;20032;-80
2021/06/29 02:03:58;;;;;;;48.42;35.13;;;21.00;90.30;;;;;;5053368;28;20033;-81
2021/06/29 02:06:24;;;;;;;42.70;33.17;;;21.00;90.30;;;;;;5054750;28;20112;-80
2021/06/29 02:08:49;;;;;;;39.17;31.55;;;20.90;90.40;;;;;;5053119;28;20033;-81
2021/06/29 02:11:15;;;;;;;47.13;32.58;;;20.90;90.40;;;;;;5040210;28;20040;-81
2021/06/29 02:13:41;;;;;;;44.97;33.38;;;20.90;90.40;;;;;;5068413;28;20036;-81
2021/06/29 02:16:06;;;;;;;51.50;37.78;;;20.90;90.60;;;;;;5067558;28;20040;-80
2021/06/29 02:18:33;;;;;;;40.58;34.92;;;20.90;90.50;;;;;;5058777;28;20421;-81
2021/06/29 02:20:59;;;;;;;42.38;33.80;;;20.80;90.50;;;;;;5069067;28;20025;-80
2021/06/29 02:23:25;;;;;;;46.60;36.50;;;20.80;90.50;;;;;;5062989;28;20028;-81
2021/06/29 02:25:50;;;;;;;42.90;32.67;;;20.80;90.50;;;;;;5066607;28;20116;-80
2021/06/29 02:28:18;;;;;;;44.85;33.95;;;20.80;90.50;;;;;;5058602;28;20025;-81
2021/06/29 02:30:43;;;;;;;41.15;32.50;;;20.90;90.50;;;;;;5072271;28;20108;-81
2021/06/29 02:33:09;;;;;;;48.40;33.55;;;20.80;90.50;;;;;;5067727;28;20055;-80
2021/06/29 02:35:36;;;;;;;45.75;35.97;;;20.80;90.50;;;;;;5058162;28;20040;-80
2021/06/29 02:38:03;;;;;;;41.35;34.05;;;20.80;90.50;;;;;;5064477;28;20036;-80
2021/06/29 02:40:29;;;;;;;43.85;34.60;;;20.80;90.50;;;;;;5067317;28;20033;-81
2021/06/29 02:42:54;;;;;;;44.42;33.90;;;20.80;90.50;;;;;;5054060;28;20036;-80
2021/06/29 02:45:21;;;;;;;48.88;36.60;;;20.80;90.60;;;;;;5053097;28;20075;-80
2021/06/29 02:47:48;;;;;;;52.67;39.33;;;20.80;90.90;;;;;;5054088;28;20036;-80
2021/06/29 02:50:16;;;;;;;46.67;36.65;;;20.70;90.60;;;;;;5063966;28;20377;-80
2021/06/29 02:52:41;;;;;;;63.95;38.75;;;20.80;90.60;;;;;;5065472;28;20164;-81
2021/06/29 02:55:10;;;;;;;52.97;38.40;;;20.70;90.90;;;;;;5072916;28;20417;-80
2021/06/29 02:57:36;;;;;;;49.63;38.30;;;20.70;90.60;;;;;;5073830;28;20032;-81
2021/06/29 03:00:06;;;;;;;57.78;40.22;;;20.70;90.60;;;;;;5071999;28;20043;-80
2021/06/29 03:02:32;;;;;;;48.95;36.28;;;20.70;90.90;;;;;;5066635;28;20027;-80
2021/06/29 03:04:57;;;;;;;46.30;36.83;;;20.70;90.70;;;;;;5066621;28;20388;-80
2021/06/29 03:07:23;;;;;;;49.42;38.25;;;20.70;90.70;;;;;;5081477;28;20050;-80
2021/06/29 03:09:49;;;;;;;80.82;47.20;;;20.70;90.70;;;;;;5072675;28;20070;-80
2021/06/29 03:12:14;;;;;;;55.45;39.85;;;20.70;90.70;;;;;;5073695;28;20095;-80
2021/06/29 03:14:41;;;;;;;56.60;38.88;;;20.70;90.80;;;;;;5073923;28;20519;-80
2021/06/29 03:17:07;;;;;;;52.22;37.17;;;20.70;90.80;;;;;;5052398;28;20051;-81
2021/06/29 03:19:34;;;;;;;58.35;41.28;;;20.70;90.90;;;;;;5053631;28;20086;-80
2021/06/29 03:22:01;;;;;;;56.25;34.83;;;20.70;90.80;;;;;;5071203;28;20025;-80
2021/06/29 03:24:28;;;;;;;53.42;35.78;;;20.70;90.80;;;;;;5073438;28;20039;-80
2021/06/29 03:26:54;;;;;;;53.08;36.45;;;20.70;90.80;;;;;;5072128;28;20050;-80
2021/06/29 03:29:20;;;;;;;50.42;35.05;;;20.70;90.80;;;;;;5072221;28;20028;-80
2021/06/29 03:31:46;;;;;;;51.80;36.45;;;20.70;90.90;;;;;;5073017;28;20033;-80
2021/06/29 03:34:12;;;;;;;59.20;38.80;;;20.70;90.90;;;;;;5073384;28;20032;-80
2021/06/29 03:36:38;;;;;;;49.95;36.15;;;20.70;90.90;;;;;;5073402;28;20108;-80
2021/06/29 03:39:05;;;;;;;50.90;35.50;;;20.70;90.90;;;;;;5076216;28;20106;-80
2021/06/29 03:41:31;;;;;;;46.10;32.65;;;20.70;90.90;;;;;;5084886;28;20477;-80
2021/06/29 03:43:57;;;;;;;54.60;40.92;;;20.70;91.00;;;;;;5073247;28;20033;-80
2021/06/29 03:46:22;;;;;;;62.92;42.00;;;20.70;91.00;;;;;;5072051;28;20401;-81
2021/06/29 03:48:48;;;;;;;60.85;39.60;;;20.70;91.00;;;;;;5073283;28;20035;-80
2021/06/29 03:51:14;;;;;;;54.78;37.63;;;20.70;91.00;;;;;;5055724;28;20078;-80
2021/06/29 03:53:39;;;;;;;58.60;39.28;;;20.70;91.00;;;;;;5071849;28;20040;-80
2021/06/29 03:56:05;;;;;;;55.40;38.35;;;20.70;91.10;;;;;;5078306;28;20481;-80
2021/06/29 03:58:31;;;;;;;56.58;37.30;;;20.70;91.10;;;;;;5073184;28;20024;-80
2021/06/29 04:00:56;;;;;;;58.63;38.33;;;20.70;91.10;;;;;;5054758;28;20083;-80
2021/06/29 04:03:22;;;;;;;64.75;41.03;;;20.70;91.10;;;;;;5068737;28;20032;-80
2021/06/29 04:05:48;;;;;;;61.92;39.63;;;20.70;91.10;;;;;;5071840;28;20097;-80
2021/06/29 04:08:14;;;;;;;51.45;36.90;;;20.70;91.10;;;;;;5073136;28;20541;-80
2021/06/29 04:10:40;;;;;;;52.28;37.70;;;20.80;91.20;;;;;;5073276;28;20025;-80
2021/06/29 04:13:05;;;;;;;50.42;35.88;;;20.70;91.10;;;;;;5079190;28;20075;-80
2021/06/29 04:15:31;;;;;;;62.75;38.85;;;20.70;91.40;;;;;;5059282;28;20025;-80
2021/06/29 04:17:57;;;;;;;52.92;36.60;;;20.70;91.20;;;;;;5061804;28;20033;-80
2021/06/29 04:20:23;;;;;;;52.20;33.25;;;20.80;91.20;;;;;;5056989;28;20025;-81
2021/06/29 04:22:49;;;;;;;47.35;33.10;;;20.80;91.20;;;;;;5064471;28;20083;-81
2021/06/29 04:25:14;;;;;;;60.45;36.67;;;20.70;91.20;;;;;;5073687;28;20032;-80
2021/06/29 04:27:40;;;;;;;40.05;29.90;;;20.80;91.20;;;;;;5056855;28;20033;-80
2021/06/29 04:30:08;;;;;;;36.67;27.75;;;20.70;91.20;;;;;;5056933;28;20032;-80
2021/06/29 04:32:34;;;;;;;35.65;26.40;;;20.70;91.30;;;;;;5057143;28;20018;-80
2021/06/29 04:34:59;;;;;;;33.22;25.42;;;20.70;91.30;;;;;;5056893;28;20056;-80
2021/06/29 04:37:25;;;;;;;35.83;26.33;;;20.70;91.30;;;;;;5057014;28;20045;-80
2021/06/29 04:39:50;;;;;;;30.88;24.05;;;20.70;91.30;;;;;;5056684;28;20029;-81
2021/06/29 04:42:16;;;;;;;29.67;21.67;;;20.70;91.30;;;;;;5056850;28;20044;-80
2021/06/29 04:44:42;;;;;;;25.80;19.65;;;20.70;91.30;;;;;;5056765;28;20029;-80
2021/06/29 04:47:09;;;;;;;24.70;20.65;;;20.70;91.30;;;;;;5056247;28;20025;-81
2021/06/29 04:49:37;;;;;;;27.35;20.88;;;20.70;91.30;;;;;;5056305;28;20476;-80
2021/06/29 04:52:03;;;;;;;28.03;19.70;;;20.70;91.40;;;;;;5073891;28;20051;-81
2021/06/29 04:54:29;;;;;;;22.35;18.17;;;20.70;91.30;;;;;;5073070;28;20028;-81
2021/06/29 04:56:55;;;;;;;19.95;16.63;;;20.70;91.30;;;;;;5079754;28;20100;-81
2021/06/29 04:59:20;;;;;;;21.20;15.50;;;20.70;91.30;;;;;;5074807;28;20033;-81
2021/06/29 05:01:46;;;;;;;20.00;16.38;;;20.70;91.30;;;;;;5064399;28;20511;-81
2021/06/29 05:04:11;;;;;;;20.13;14.35;;;20.70;91.20;;;;;;5054537;28;20021;-81
2021/06/29 05:06:37;;;;;;;21.38;15.90;;;20.70;91.10;;;;;;5054933;28;20025;-81
2021/06/29 05:09:03;;;;;;;17.65;15.00;;;20.80;91.10;;;;;;5056109;28;20037;-81
2021/06/29 05:11:28;;;;;;;18.88;14.55;;;20.70;91.10;;;;;;5077647;28;20032;-81
2021/06/29 05:13:54;;;;;;;18.63;14.55;;;20.70;91.10;;;;;;5059093;28;20450;-80
2021/06/29 05:16:20;;;;;;;18.95;15.00;;;20.70;91.10;;;;;;5074479;28;20036;-80
2021/06/29 05:18:46;;;;;;;16.33;13.10;;;20.70;91.10;;;;;;5072938;28;20037;-80
2021/06/29 05:21:11;;;;;;;15.63;13.25;;;20.70;91.10;;;;;;5056561;28;20036;-78
2021/06/29 05:23:37;;;;;;;14.88;12.73;;;20.70;91.10;;;;;;5077751;28;20033;-80
2021/06/29 05:26:03;;;;;;;17.20;13.68;;;20.80;91.10;;;;;;5075870;28;20033;-79
2021/06/29 05:28:28;;;;;;;19.63;14.60;;;20.80;91.30;;;;;;5056122;28;20032;-79
2021/06/29 05:30:55;;;;;;;19.63;14.60;;;20.80;91.10;;;;;;5055385;28;20494;-79
2021/06/29 05:33:21;;;;;;;17.02;14.70;;;20.80;91.10;;;;;;5056074;28;20098;-79
2021/06/29 05:35:47;;;;;;;19.77;14.35;;;20.80;91.00;;;;;;5056790;28;20029;-80
2021/06/29 05:38:13;;;;;;;23.05;17.00;;;20.70;91.10;;;;;;5070164;28;20112;-80
2021/06/29 05:40:39;;;;;;;20.15;15.80;;;20.80;91.00;;;;;;5066735;28;20481;-79
2021/06/29 05:43:05;;;;;;;20.65;16.05;;;20.70;91.00;;;;;;5074545;28;20444;-80
2021/06/29 05:45:31;;;;;;;22.30;15.80;;;20.70;91.10;;;;;;5075356;28;20020;-80
2021/06/29 05:47:57;;;;;;;17.30;14.35;;;20.70;91.10;;;;;;5073752;28;20481;-80
2021/06/29 05:50:23;;;;;;;19.38;14.70;;;20.70;91.10;;;;;;5075494;28;20526;-80
2021/06/29 05:52:49;;;;;;;19.25;14.75;;;20.70;91.10;;;;;;5073907;28;20139;-80
2021/06/29 05:55:15;;;;;;;18.48;13.90;;;20.70;91.10;;;;;;5075277;28;20090;-80
2021/06/29 05:57:41;;;;;;;21.00;14.18;;;20.60;91.00;;;;;;5075311;28;20036;-80
2021/06/29 06:00:18;;;;;;;17.73;13.13;;;20.60;91.00;;;;;;5069691;28;20029;-80
2021/06/29 06:02:44;;;;;;;20.15;12.95;;;20.60;91.10;;;;;;5055228;28;20083;-80
2021/06/29 06:05:10;;;;;;;15.18;12.27;;;20.60;91.10;;;;;;5060988;28;20032;-79
2021/06/29 06:07:37;;;;;;;18.58;12.63;;;20.70;91.10;;;;;;5075103;28;20031;-79
2021/06/29 06:10:05;;;;;;;16.15;13.15;;;20.70;91.00;;;;;;5074888;28;20028;-80
2021/06/29 06:12:30;;;;;;;16.83;13.47;;;20.70;91.20;;;;;;5073884;28;20024;-80
2021/06/29 06:14:56;;;;;;;16.23;13.50;;;20.70;91.00;;;;;;5075220;28;20587;-80
2021/06/29 06:17:22;;;;;;;19.17;13.15;;;20.70;90.90;;;;;;5075068;28;20081;-79
2021/06/29 06:19:48;;;;;;;17.88;12.90;;;20.70;91.00;;;;;;5075231;28;20377;-80
2021/06/29 06:22:14;;;;;;;18.45;14.18;;;20.70;91.30;;;;;;5073650;28;20029;-79
2021/06/29 06:24:40;;;;;;;18.35;14.73;;;20.70;91.10;;;;;;5075002;28;20029;-80
2021/06/29 06:27:08;;;;;;;24.02;14.43;;;20.70;91.10;;;;;;5073533;28;20058;-80
2021/06/29 06:29:34;;;;;;;18.05;15.95;;;20.80;91.10;;;;;;5074694;28;20066;-79
2021/06/29 06:32:00;;;;;;;19.25;14.43;;;20.80;91.10;;;;;;5073634;28;20032;-80
2021/06/29 06:34:26;;;;;;;25.77;16.88;;;20.80;91.00;;;;;;5076995;28;20081;-79
2021/06/29 06:36:52;;;;;;;19.42;16.42;;;20.80;91.10;;;;;;5095290;28;20028;-80
2021/06/29 06:39:17;;;;;;;23.70;16.33;;;20.80;91.00;;;;;;5094891;28;20036;-80
2021/06/29 06:41:43;;;;;;;22.13;15.50;;;20.90;91.10;;;;;;5093572;28;20140;-79
2021/06/29 06:44:09;;;;;;;24.77;16.88;;;20.90;91.00;;;;;;5093602;28;20036;-79
2021/06/29 06:46:34;;;;;;;26.17;17.65;;;21.00;91.00;;;;;;5094662;28;20024;-80
2021/06/29 06:49:00;;;;;;;22.15;16.90;;;21.00;90.90;;;;;;5093629;28;20123;-80
2021/06/29 06:51:25;;;;;;;30.23;21.40;;;21.00;90.90;;;;;;5088560;28;20087;-80
2021/06/29 06:53:51;;;;;;;31.75;21.00;;;21.00;90.80;;;;;;5074146;28;20032;-79
2021/06/29 06:56:17;;;;;;;32.08;22.90;;;21.00;90.80;;;;;;5056376;28;20495;-80
2021/06/29 06:58:44;;;;;;;33.85;21.48;;;21.00;90.80;;;;;;5072939;28;20029;-79
2021/06/29 07:01:11;;;;;;;27.90;20.67;;;21.00;90.90;;;;;;5074007;28;20568;-79
2021/06/29 07:03:38;;;;;;;34.20;24.40;;;21.00;90.90;;;;;;5074119;28;20024;-80
2021/06/29 07:06:07;;;;;;;37.92;24.52;;;21.10;90.90;;;;;;5073993;28;20021;-79
2021/06/29 07:08:34;;;;;;;45.42;29.75;;;21.10;90.90;;;;;;5056717;28;20078;-80
2021/06/29 07:11:01;;;;;;;46.38;30.70;;;21.10;90.90;;;;;;5054026;28;20119;-80
2021/06/29 07:13:27;;;;;;;50.85;32.17;;;21.10;90.80;;;;;;5054632;28;20147;-79
2021/06/29 07:15:53;;;;;;;47.20;32.88;;;21.20;90.80;;;;;;5053810;28;20027;-80
2021/06/29 07:18:20;;;;;;;49.33;33.22;;;21.20;90.70;;;;;;5053819;28;20033;-79
2021/06/29 07:20:47;;;;;;;50.50;33.00;;;21.20;90.70;;;;;;5054058;28;20036;-80
2021/06/29 07:23:13;;;;;;;53.40;35.90;;;21.20;90.70;;;;;;5053815;28;20020;-80
2021/06/29 07:25:41;;;;;;;60.65;37.75;;;21.20;91.00;;;;;;5052708;28;20143;-79
2021/06/29 07:28:08;;;;;;;51.17;34.13;;;21.30;90.60;;;;;;5053255;28;20436;-79
2021/06/29 07:30:35;;;;;;;50.97;33.88;;;21.40;90.60;;;;;;5084033;28;20047;-80
2021/06/29 07:33:00;;;;;;;64.32;40.63;;;21.40;90.60;;;;;;5091287;28;20036;-80
2021/06/29 07:35:28;;;;;;;67.93;42.13;;;21.40;90.40;;;;;;5084666;28;20024;-80
2021/06/29 07:37:54;;;;;;;66.10;43.03;;;21.40;90.40;;;;;;5073694;28;20033;-80
2021/06/29 07:40:19;;;;;;;70.18;46.28;;;21.50;90.30;;;;;;5073652;28;20028;-80
2021/06/29 07:42:45;;;;;;;72.68;48.00;;;21.60;90.20;;;;;;5073403;28;20500;-80
2021/06/29 07:45:12;;;;;;;67.45;45.20;;;21.70;90.00;;;;;;5073392;28;20035;-80
2021/06/29 07:47:39;;;;;;;69.50;47.22;;;21.80;89.20;;;;;;5073250;28;20028;-79
2021/06/29 07:50:07;;;;;;;77.68;47.55;;;21.90;88.50;;;;;;5073586;28;20040;-79
2021/06/29 07:52:33;;;;;;;76.72;48.42;;;22.00;88.20;;;;;;5073407;28;20040;-79
2021/06/29 07:54:59;;;;;;;63.45;42.88;;;22.20;88.20;;;;;;5072352;28;20039;-80
2021/06/29 07:57:25;;;;;;;59.65;40.47;;;22.30;87.60;;;;;;5073501;28;20170;-79
2021/06/29 07:59:51;;;;;;;64.85;42.38;;;22.30;86.90;;;;;;5072228;28;20039;-79
2021/06/29 08:02:17;;;;;;;59.30;38.00;;;22.30;86.90;;;;;;5077407;28;20111;-79
2021/06/29 08:04:43;;;;;;;53.30;35.58;;;22.30;86.40;;;;;;5093548;28;20066;-80
2021/06/29 08:07:10;;;;;;;46.10;29.08;;;22.40;87.00;;;;;;5093605;28;20032;-80
2021/06/29 08:09:36;;;;;;;34.78;24.65;;;22.50;86.70;;;;;;5092270;28;20105;-80
2021/06/29 08:12:03;;;;;;;36.70;23.80;;;22.70;83.60;;;;;;5093907;28;20020;-80
2021/06/29 08:14:29;;;;;;;32.90;20.65;;;22.80;83.60;;;;;;5093824;28;20492;-80
2021/06/29 08:16:55;;;;;;;25.00;16.95;;;23.00;83.30;;;;;;5093665;28;20024;-80
2021/06/29 08:19:20;;;;;;;26.55;17.80;;;23.10;81.30;;;;;;5093422;28;20024;-80
2021/06/29 08:21:46;;;;;;;24.05;17.17;;;23.10;81.10;;;;;;5092727;28;20032;-80
2021/06/29 08:24:13;;;;;;;26.27;17.10;;;23.10;81.40;;;;;;5092802;28;20391;-80
2021/06/29 08:26:38;;;;;;;27.60;19.27;;;23.00;81.80;;;;;;5093615;28;20116;-80
2021/06/29 08:29:04;;;;;;;27.65;19.38;;;22.90;82.10;;;;;;5093373;28;20496;-80
2021/06/29 08:31:30;;;;;;;25.52;18.08;;;22.80;81.90;;;;;;5093379;28;20126;-80
2021/06/29 08:33:55;;;;;;;31.20;18.77;;;22.70;81.90;;;;;;5093571;28;20020;-80
2021/06/29 08:36:22;;;;;;;25.90;16.10;;;22.70;82.40;;;;;;5093645;28;20358;-80
2021/06/29 08:38:49;;;;;;;22.55;15.88;;;22.90;81.80;;;;;;5093298;28;20040;-80
2021/06/29 08:41:15;;;;;;;25.40;14.52;;;23.10;81.80;;;;;;5093199;28;20040;-80
2021/06/29 08:43:41;;;;;;;19.30;13.45;;;23.20;81.30;;;;;;5093086;28;20024;-80
2021/06/29 08:46:09;;;;;;;23.27;14.10;;;23.20;80.80;;;;;;5092861;28;20032;-80
2021/06/29 08:48:35;;;;;;;22.35;13.90;;;23.20;80.20;;;;;;5091984;28;20024;-80
2021/06/29 08:51:05;;;;;;;20.67;13.27;;;23.30;79.70;;;;;;5092904;28;20089;-80
2021/06/29 08:53:32;;;;;;;15.50;12.38;;;23.40;79.20;;;;;;5092948;28;20439;-80
2021/06/29 08:56:00;;;;;;;15.93;11.82;;;23.50;79.10;;;;;;5092835;28;20095;-80
2021/06/29 08:58:27;;;;;;;17.50;12.23;;;23.60;78.40;;;;;;5094602;28;20463;-80
2021/06/29 09:00:54;;;;;;;17.77;12.20;;;23.80;78.20;;;;;;5096665;28;20103;-80
2021/06/29 09:03:20;;;;;;;17.15;12.30;;;23.90;77.70;;;;;;5090222;28;20020;-79
2021/06/29 09:05:50;;;;;;;17.08;11.77;;;24.10;77.30;;;;;;5063702;28;20040;-80
2021/06/29 09:08:19;;;;;;;15.40;11.73;;;24.10;75.90;;;;;;5056106;28;20037;-80
2021/06/29 09:11:09;;;;;;;14.85;11.55;;;24.10;76.60;;;;;;5061543;28;20373;-81
2021/06/29 09:13:36;;;;;;;14.73;10.48;;;24.10;76.20;;;;;;5055963;28;20021;-81
2021/06/29 09:16:01;;;;;;;14.60;10.98;;;24.00;76.00;;;;;;5054838;28;20044;-81
2021/06/29 09:18:30;;;;;;;13.20;9.80;;;24.00;75.60;;;;;;5054654;28;20035;-80
2021/06/29 09:21:04;;;;;;;13.23;9.70;;;24.10;75.60;;;;;;5055917;28;20033;-80
2021/06/29 09:23:47;;;;;;;13.15;10.13;;;24.00;75.60;;;;;;5055929;28;20056;-81
2021/06/29 09:26:15;;;;;;;13.65;9.35;;;24.10;75.30;;;;;;5055946;28;20541;-80
2021/06/29 09:28:45;;;;;;;13.32;10.45;;;24.10;75.80;;;;;;5055919;28;20117;-81
2021/06/29 09:31:13;;;;;;;10.52;8.52;;;24.20;74.80;;;;;;5055726;28;20557;-80
2021/06/29 09:33:44;;;;;;;14.07;9.00;;;24.20;74.20;;;;;;5055747;28;20082;-80
2021/06/29 09:36:14;;;;;;;14.20;9.02;;;24.20;74.70;;;;;;5055719;28;20021;-81
2021/06/29 09:38:43;;;;;;;11.05;7.60;;;24.20;73.50;;;;;;5054473;28;20378;-81
2021/06/29 09:41:16;;;;;;;17.80;8.68;;;24.10;74.20;;;;;;5054428;28;20501;-81
2021/06/29 09:43:46;;;;;;;12.90;8.00;;;24.10;74.90;;;;;;5055659;28;20036;-81
2021/06/29 09:46:14;;;;;;;10.43;7.88;;;24.20;75.10;;;;;;5055705;28;20104;-81
2021/06/29 09:48:40;;;;;;;8.73;7.63;;;24.40;73.90;;;;;;5055479;28;20021;-81
2021/06/29 09:51:26;;;;;;;12.02;8.23;;;24.60;73.60;;;;;;5054221;28;20029;-81
2021/06/29 09:53:53;;;;;;;10.55;8.60;;;24.50;74.20;;;;;;5055448;28;20029;-81
2021/06/29 09:56:29;;;;;;;12.52;8.90;;;24.40;73.80;;;;;;5055691;28;20049;-81
2021/06/29 09:58:58;;;;;;;12.07;8.52;;;24.40;74.40;;;;;;5055157;28;20075;-81
2021/06/29 10:01:27;;;;;;;10.15;7.85;;;24.50;74.00;;;;;;5053922;28;20028;-81
2021/06/29 10:03:53;;;;;;;9.05;7.40;;;24.90;72.90;;;;;;5054076;28;20025;-81
2021/06/29 10:06:28;;;;;;;10.82;8.68;;;25.20;71.80;;;;;;5067220;28;20024;-81
2021/06/29 10:09:15;;;;;;;9.70;8.50;;;25.30;71.10;;;;;;5095108;28;20427;-81
2021/06/29 10:11:42;;;;;;;11.05;8.35;;;25.50;71.40;;;;;;5095346;28;20028;-81
2021/06/29 10:14:09;;;;;;;12.43;8.02;;;25.80;71.60;;;;;;5088157;28;20029;-81
2021/06/29 10:16:42;;;;;;;9.15;7.70;;;26.00;70.30;;;;;;5075039;28;20025;-81
2021/06/29 10:21:47;;;;;;;12.05;8.68;;;26.40;69.10;;;;;;5075038;28;20028;-81
2021/06/29 10:24:15;;;;;;;9.20;7.97;;;26.10;67.70;;;;;;5073447;28;20031;-81
2021/06/29 10:26:43;;;;;;;12.23;6.90;;;25.80;67.10;;;;;;5073774;28;20111;-81
2021/06/29 10:29:10;;;;;;;10.13;6.53;;;25.60;67.60;;;;;;5074004;28;20465;-81
2021/06/29 10:31:39;;;;;;;11.77;6.67;;;25.50;68.70;;;;;;5072737;28;20039;-81
2021/06/29 10:34:07;;;;;;;6.47;5.70;;;25.60;69.70;;;;;;5081849;28;20289;-81
2021/06/29 10:36:38;;;;;;;7.32;6.13;;;25.90;69.60;;;;;;5094937;28;20027;-81
2021/06/29 10:39:05;;;;;;;6.65;5.78;;;26.10;66.30;;;;;;5094834;28;20032;-81
2021/06/29 10:41:40;;;;;;;7.25;4.65;;;26.10;65.60;;;;;;5089688;28;20358;-81
2021/06/29 10:44:13;;;;;;;6.03;4.22;;;26.10;65.90;;;;;;5073138;28;20059;-81
2021/06/29 10:46:49;;;;;;;5.25;4.07;;;26.30;66.90;;;;;;5073772;28;20112;-81
2021/06/29 10:49:38;;;;;;;6.93;5.70;;;26.50;65.90;;;;;;5053719;28;20021;-81
2021/06/29 10:52:08;;;;;;;10.23;7.43;;;26.40;65.80;;;;;;5053669;28;20048;-81
2021/06/29 10:54:46;;;;;;;9.40;6.80;;;26.30;66.40;;;;;;5064815;28;20441;-81
2021/06/29 10:57:16;;;;;;;6.82;5.80;;;26.40;63.50;;;;;;5073934;28;20103;-81
2021/06/29 10:59:48;;;;;;;6.35;5.70;;;26.40;64.00;;;;;;5072910;28;20029;-81
2021/06/29 11:02:27;;;;;;;8.38;4.63;;;26.50;63.90;;;;;;5072839;28;20469;-81
2021/06/29 11:05:03;;;;;;;6.25;4.07;;;26.60;63.20;;;;;;5081945;28;20029;-82
2021/06/29 11:07:31;;;;;;;6.38;4.93;;;26.80;63.40;;;;;;5094334;28;20380;-82
2021/06/29 11:10:30;;;;;;;5.22;4.35;;;27.00;63.90;;;;;;5094338;28;20089;-82
2021/06/29 11:13:00;;;;;;;6.70;3.88;;;27.10;63.00;;;;;;5094747;28;20036;-82
2021/06/29 11:15:39;;;;;;;4.80;4.18;;;27.30;61.50;;;;;;5092864;28;20499;-82
2021/06/29 11:18:05;;;;;;;5.55;4.43;;;27.40;59.90;;;;;;5092919;28;20039;-82
2021/06/29 11:20:38;;;;;;;5.25;4.68;;;27.50;60.30;;;;;;5073263;28;20040;-81
2021/06/29 11:23:32;;;;;;;8.68;5.40;;;27.60;62.80;;;;;;5073942;28;20024;-82
2021/06/29 11:26:15;;;;;;;9.70;6.70;;;27.60;62.00;;;;;;5073520;28;20071;-81
2021/06/29 11:28:42;;;;;;;9.70;6.25;;;27.50;60.30;;;;;;5073593;28;20025;-81
2021/06/29 11:31:31;;;;;;;13.07;8.00;;;27.30;61.90;;;;;;5073708;28;20155;-81
2021/06/29 11:33:59;;;;;;;13.57;7.38;;;27.10;62.20;;;;;;5072265;28;20025;-81
2021/06/29 11:36:25;;;;;;;9.00;6.93;;;26.70;61.90;;;;;;5072422;28;20031;-81
2021/06/29 11:38:54;;;;;;;7.97;5.57;;;26.40;61.50;;;;;;5073426;28;20028;-81
2021/06/29 11:41:31;;;;;;;7.88;5.28;;;26.40;62.20;;;;;;5060288;28;20036;-81
2021/06/29 11:44:15;;;;;;;6.65;4.93;;;26.60;60.20;;;;;;5052602;28;20025;-81
2021/06/29 11:47:05;;;;;;;8.70;5.78;;;26.90;62.30;;;;;;5052112;28;20040;-82
2021/06/29 11:49:30;;;;;;;8.93;5.70;;;27.20;61.10;;;;;;5053277;28;20025;-82
2021/06/29 11:52:01;;;;;;;10.45;7.07;;;27.50;61.00;;;;;;5064977;28;20047;-81
2021/06/29 11:54:28;;;;;;;15.10;7.55;;;27.50;59.70;;;;;;5087565;28;20024;-81
2021/06/29 11:56:59;;;;;;;15.70;9.20;;;27.40;61.10;;;;;;5053254;28;20028;-81
2021/06/29 11:59:30;;;;;;;12.85;8.70;;;27.00;60.70;;;;;;5051653;28;20024;-81
2021/06/29 12:02:03;;;;;;;13.70;9.10;;;26.60;61.30;;;;;;5051767;28;20033;-81
2021/06/29 12:04:29;;;;;;;13.70;8.15;;;26.30;62.30;;;;;;5052787;28;20029;-81
2021/06/29 12:07:03;;;;;;;12.88;8.82;;;26.20;62.90;;;;;;5052840;28;20021;-81
2021/06/29 12:09:33;;;;;;;14.85;10.20;;;26.40;63.30;;;;;;5066544;28;20090;-81
2021/06/29 12:12:17;;;;;;;11.43;7.88;;;26.60;61.40;;;;;;5071929;28;20488;-81
2021/06/29 12:14:43;;;;;;;12.55;7.78;;;26.80;60.90;;;;;;5072762;28;20035;-82
2021/06/29 12:17:09;;;;;;;13.30;10.35;;;27.00;61.20;;;;;;5072631;28;20021;-81
2021/06/29 12:19:35;;;;;;;14.43;10.40;;;27.30;60.50;;;;;;5072085;28;20052;-82
2021/06/29 12:22:01;;;;;;;15.45;12.10;;;27.40;59.90;;;;;;5073077;28;20047;-81
2021/06/29 12:24:27;;;;;;;15.18;11.75;;;27.60;60.30;;;;;;5071926;28;20125;-77
2021/06/29 12:26:52;;;;;;;12.10;9.00;;;27.70;59.90;;;;;;5072615;28;20070;-77
2021/06/29 12:29:36;;;;;;;9.27;7.57;;;27.90;58.50;;;;;;5054868;28;20028;-77
2021/06/29 12:32:18;;;;;;;15.10;12.10;;;28.10;58.30;;;;;;5073649;28;20086;-77
2021/06/29 12:34:44;;;;;;;19.23;14.13;;;28.20;58.10;;;;;;5076559;28;20028;-77
2021/06/29 12:37:10;;;;;;;14.90;12.77;;;28.20;57.50;;;;;;5076628;28;20405;-77